Time;durP1;ratioP1;P1;durP2;ratioP2;P2;SDS_P1;SDS_P2;PMS_P1;PMS_P2;Temp;Humidity;BMP_temperature;BMP_pressure;BME280_temperature;BME280_humidity;BME280_pressure;Samples;Min_cycle;Max_cycle;Signal;HPM_P1;HPM_P2
2021/04/12 00:00:09;;;;;;;0.80;0.80;;;;;;;;;;5075174;28;20048;-65
2021/04/12 00:02:39;;;;;;;1.38;0.82;;;;;;;;;;5071875;28;20588;-65
2021/04/12 00:05:29;;;;;;;1.33;0.85;;;;;;;;;;5068163;28;20068;-65
2021/04/12 00:08:01;;;;;;;1.42;0.80;;;;;;;;;;5074852;28;20047;-66
2021/04/12 00:10:31;;;;;;;1.40;0.90;;;;;;;;;;5071201;28;20568;-65
2021/04/12 00:13:01;;;;;;;2.30;0.88;;;;;;;;;;5074697;28;20048;-66
2021/04/12 00:15:32;;;;;;;1.10;0.70;;;;;;;;;;5071930;28;20037;-66
2021/04/12 00:18:02;;;;;;;1.58;0.80;;;;;;;;;;5070583;28;20048;-65
2021/04/12 00:20:31;;;;;;;1.00;0.80;;;;;;;;;;5073100;28;20079;-65
2021/04/12 00:23:00;;;;;;;1.00;0.90;;;;;;;;;;5072628;28;20572;-65
2021/04/12 00:25:29;;;;;;;1.50;1.00;;;;;;;;;;5071475;28;20564;-65
2021/04/12 00:27:58;;;;;;;1.60;1.10;;;;;;;;;;5068409;28;20055;-66
2021/04/12 00:30:28;;;;;;;0.98;0.80;;;;;;;;;;5068638;28;20049;-65
2021/04/12 00:32:59;;;;;;;1.08;0.98;;;;;;;;;;5079450;28;20067;-65
2021/04/12 00:35:29;;;;;;;2.38;0.98;;;;;;;;;;5079239;28;20055;-65
2021/04/12 00:38:00;;;;;;;2.92;1.45;;;;;;;;;;5083181;28;20041;-64
2021/04/12 00:40:32;;;;;;;1.80;1.13;;;;;;;;;;5082109;28;20044;-65
2021/04/12 00:43:17;;;;;;;2.03;1.13;;;;;;;;;;5076048;28;20059;-65
2021/04/12 00:46:07;;;;;;;1.77;0.93;;;;;;;;;;5086655;28;20158;-65
2021/04/12 00:48:46;;;;;;;1.27;0.90;;;;;;;;;;5085638;28;20051;-64
2021/04/12 00:51:27;;;;;;;1.65;1.40;;;;;;;;;;5078816;28;20044;-64
2021/04/12 00:54:05;;;;;;;1.92;1.30;;;;;;;;;;5080372;28;20053;-64
2021/04/12 00:56:36;;;;;;;1.67;1.13;;;;;;;;;;5079916;28;20048;-64
2021/04/12 00:59:06;;;;;;;1.73;1.35;;;;;;;;;;5076324;28;20048;-65
2021/04/12 01:01:46;;;;;;;2.35;1.55;;;;;;;;;;5078065;28;20358;-64
2021/04/12 01:04:26;;;;;;;1.92;1.20;;;;;;;;;;5073365;28;20048;-64
2021/04/12 01:07:08;;;;;;;1.92;1.30;;;;;;;;;;5073550;28;20075;-65
2021/04/12 01:09:53;;;;;;;1.80;1.15;;;;;;;;;;5073090;28;20547;-64
2021/04/12 01:12:47;;;;;;;2.30;1.70;;;;;;;;;;5074108;28;20601;-65
2021/04/12 01:15:33;;;;;;;1.75;1.20;;;;;;;;;;5078406;28;20071;-65
2021/04/12 01:18:20;;;;;;;1.48;1.05;;;;;;;;;;5079003;28;20036;-64
2021/04/12 01:21:12;;;;;;;2.85;1.88;;;;;;;;;;5080617;28;20040;-65
2021/04/12 01:24:06;;;;;;;4.90;2.85;;;;;;;;;;5070955;28;20088;-65
2021/04/12 01:26:53;;;;;;;5.47;4.28;;;;;;;;;;5079651;28;20452;-64
2021/04/12 01:30:10;;;;;;;5.10;3.65;;;;;;;;;;5074729;28;20055;-64
2021/04/12 01:33:09;;;;;;;6.07;4.28;;;;;;;;;;5081769;28;20052;-65
2021/04/12 01:35:39;;;;;;;5.10;3.60;;;;;;;;;;5080520;28;20048;-65
2021/04/12 01:38:29;;;;;;;5.47;3.70;;;;;;;;;;5080735;28;20055;-65
2021/04/12 01:41:08;;;;;;;6.70;4.55;;;;;;;;;;5076801;28;20052;-65
2021/04/12 01:43:50;;;;;;;5.85;4.35;;;;;;;;;;5079920;28;20052;-65
2021/04/12 01:46:20;;;;;;;6.15;4.18;;;;;;;;;;5080763;28;20044;-65
2021/04/12 01:48:55;;;;;;;6.35;4.47;;;;;;;;;;5081523;28;20062;-65
2021/04/12 01:51:54;;;;;;;6.18;4.47;;;;;;;;;;5076919;28;20051;-65
2021/04/12 01:54:44;;;;;;;6.82;5.20;;;;;;;;;;5075335;28;20059;-64
2021/04/12 01:57:30;;;;;;;6.63;4.72;;;;;;;;;;5080166;28;20044;-65
2021/04/12 02:00:13;;;;;;;7.53;5.03;;;;;;;;;;5077845;28;20053;-65
2021/04/12 02:02:41;;;;;;;5.75;4.35;;;;;;;;;;5082376;28;20043;-65
2021/04/12 02:05:19;;;;;;;7.28;5.22;;;;;;;;;;5078060;28;20072;-65
2021/04/12 02:07:56;;;;;;;6.70;4.90;;;;;;;;;;5080251;28;20121;-64
2021/04/12 02:10:49;;;;;;;6.88;4.97;;;;;;;;;;5079366;28;20060;-64
2021/04/12 02:13:33;;;;;;;6.05;4.45;;;;;;;;;;5081020;28;20056;-64
2021/04/12 02:16:07;;;;;;;6.05;4.65;;;;;;;;;;5079371;28;20055;-64
2021/04/12 02:18:52;;;;;;;6.28;4.88;;;;;;;;;;5083045;28;20420;-64
2021/04/12 02:21:24;;;;;;;5.97;4.68;;;;;;;;;;5081216;28;20513;-64
2021/04/12 02:24:01;;;;;;;6.13;4.30;;;;;;;;;;5082865;28;20382;-64
2021/04/12 02:26:35;;;;;;;6.75;4.60;;;;;;;;;;5081664;28;20121;-64
2021/04/12 02:29:12;;;;;;;5.88;4.35;;;;;;;;;;5080676;28;20515;-64
2021/04/12 02:31:47;;;;;;;6.78;4.75;;;;;;;;;;5082974;28;20048;-64
2021/04/12 02:34:24;;;;;;;6.53;5.05;;;;;;;;;;5076177;28;20455;-64
2021/04/12 02:37:06;;;;;;;6.30;4.80;;;;;;;;;;5075309;28;20078;-64
2021/04/12 02:39:41;;;;;;;6.25;4.25;;;;;;;;;;5081952;28;20040;-64
2021/04/12 02:42:13;;;;;;;6.55;4.70;;;;;;;;;;5080981;28;20538;-64
2021/04/12 02:44:49;;;;;;;7.50;5.13;;;;;;;;;;5082201;28;20480;-64
2021/04/12 02:47:24;;;;;;;7.30;4.80;;;;;;;;;;5082238;28;20044;-64
2021/04/12 02:49:54;;;;;;;5.97;4.10;;;;;;;;;;5082588;28;20054;-64
2021/04/12 02:52:28;;;;;;;5.32;3.97;;;;;;;;;;5079987;28;20044;-64
2021/04/12 02:55:07;;;;;;;5.72;4.10;;;;;;;;;;5081680;28;20067;-64
2021/04/12 02:58:07;;;;;;;6.90;4.50;;;;;;;;;;5081370;28;20487;-63
2021/04/12 03:00:40;;;;;;;5.93;3.83;;;;;;;;;;5053169;28;20477;-64
2021/04/12 03:03:26;;;;;;;6.55;4.93;;;;;;;;;;5076490;28;20472;-64
2021/04/12 03:06:02;;;;;;;5.80;4.13;;;;;;;;;;5080177;28;20589;-64
2021/04/12 03:08:35;;;;;;;;;;;;;;;;;;5079785;28;20104;-64
2021/04/12 03:11:45;;;;;;;5.18;3.88;;;;;;;;;;5080099;28;19924;-64
2021/04/12 03:14:25;;;;;;;4.93;3.58;;;;;;;;;;5077560;28;20052;-64
2021/04/12 03:17:06;;;;;;;4.60;3.33;;;;;;;;;;5079326;28;20624;-64
2021/04/12 03:19:43;;;;;;;5.07;3.78;;;;;;;;;;5080236;28;20078;-64
2021/04/12 03:22:32;;;;;;;5.15;3.15;;;;;;;;;;5081537;28;20451;-64
2021/04/12 03:25:19;;;;;;;4.40;3.33;;;;;;;;;;5077742;28;20052;-64
2021/04/12 03:27:56;;;;;;;3.80;2.50;;;;;;;;;;5073480;28;20070;-64
2021/04/12 03:30:33;;;;;;;3.10;2.17;;;;;;;;;;5079188;28;20052;-64
2021/04/12 03:33:07;;;;;;;2.88;2.00;;;;;;;;;;5075773;28;20413;-64
2021/04/12 03:35:50;;;;;;;2.97;1.67;;;;;;;;;;5081083;28;20074;-64
2021/04/12 03:38:29;;;;;;;2.85;1.95;;;;;;;;;;5082162;28;20481;-64
2021/04/12 03:41:11;;;;;;;2.47;1.60;;;;;;;;;;5082062;28;20374;-64
2021/04/12 03:43:53;;;;;;;2.60;1.70;;;;;;;;;;5082988;28;20052;-64
2021/04/12 03:46:26;;;;;;;1.92;1.20;;;;;;;;;;5079161;28;20543;-64
2021/04/12 03:49:08;;;;;;;1.88;1.30;;;;;;;;;;5078102;28;20448;-64
2021/04/12 03:52:04;;;;;;;1.42;1.20;;;;;;;;;;5076115;28;20142;-65
2021/04/12 03:54:41;;;;;;;2.00;1.42;;;;;;;;;;5079602;28;20056;-64
2021/04/12 03:57:36;;;;;;;2.38;1.40;;;;;;;;;;5079208;28;20482;-64
2021/04/12 04:00:14;;;;;;;1.52;1.20;;;;;;;;;;5076345;28;20040;-65
2021/04/12 04:02:52;;;;;;;1.48;1.00;;;;;;;;;;5082228;28;20089;-64
2021/04/12 04:05:44;;;;;;;1.20;0.90;;;;;;;;;;5082755;28;20408;-65
2021/04/12 04:08:25;;;;;;;2.33;1.02;;;;;;;;;;5074980;28;20070;-64
2021/04/12 04:11:14;;;;;;;1.67;1.08;;;;;;;;;;5078906;28;20045;-65
2021/04/12 04:13:46;;;;;;;2.10;1.30;;;;;;;;;;5057639;28;20055;-65
2021/04/12 04:16:20;;;;;;;1.02;0.82;;;;;;;;;;5076696;28;20391;-65
2021/04/12 04:18:57;;;;;;;1.33;0.90;;;;;;;;;;5078488;28;20043;-65
2021/04/12 04:21:45;;;;;;;0.80;0.80;;;;;;;;;;5076584;28;20058;-65
2021/04/12 04:24:24;;;;;;;2.00;0.90;;;;;;;;;;5079799;28;20052;-65
2021/04/12 04:27:34;;;;;;;1.45;0.98;;;;;;;;;;5078911;28;20044;-65
2021/04/12 04:30:23;;;;;;;2.05;1.20;;;;;;;;;;5060555;28;20138;-65
2021/04/12 04:33:02;;;;;;;1.73;1.00;;;;;;;;;;5082851;28;20048;-65
2021/04/12 04:35:44;;;;;;;1.70;1.10;;;;;;;;;;5071766;28;20056;-65
2021/04/12 04:38:49;;;;;;;1.90;1.25;;;;;;;;;;5079799;28;20044;-65
2021/04/12 04:41:23;;;;;;;1.40;1.05;;;;;;;;;;5001849;28;20064;-64
2021/04/12 04:44:12;;;;;;;1.42;1.00;;;;;;;;;;5069244;28;20063;-65
2021/04/12 04:46:55;;;;;;;2.58;1.25;;;;;;;;;;5084672;28;20365;-65
2021/04/12 04:49:41;;;;;;;1.60;1.40;;;;;;;;;;5078477;28;20169;-65
2021/04/12 04:52:33;;;;;;;2.70;1.40;;;;;;;;;;5080936;28;20044;-65
2021/04/12 04:55:28;;;;;;;2.35;1.50;;;;;;;;;;5078423;28;20064;-65
2021/04/12 04:58:18;;;;;;;2.47;1.42;;;;;;;;;;5072414;28;20060;-65
2021/04/12 05:01:15;;;;;;;3.05;1.63;;;;;;;;;;5068696;28;20055;-65
2021/04/12 05:03:53;;;;;;;5.05;1.48;;;;;;;;;;5073340;28;20513;-65
2021/04/12 05:06:31;;;;;;;2.28;1.40;;;;;;;;;;5068720;28;20409;-64
2021/04/12 05:09:14;;;;;;;2.35;1.30;;;;;;;;;;5074373;28;20044;-65
2021/04/12 05:11:53;;;;;;;2.75;1.60;;;;;;;;;;5078498;28;20403;-62
2021/04/12 05:14:35;;;;;;;3.10;1.45;;;;;;;;;;5079389;28;20048;-64
2021/04/12 05:17:16;;;;;;;2.70;1.30;;;;;;;;;;5078864;28;20044;-64
2021/04/12 05:19:49;;;;;;;1.98;1.30;;;;;;;;;;5078547;28;20491;-65
2021/04/12 05:22:33;;;;;;;2.45;1.55;;;;;;;;;;5081950;28;20088;-64
2021/04/12 05:25:42;;;;;;;1.85;1.50;;;;;;;;;;5077443;28;20427;-64
2021/04/12 05:28:48;;;;;;;2.15;1.42;;;;;;;;;;5008281;28;20041;-64
2021/04/12 05:31:52;;;;;;;3.50;1.88;;;;;;;;;;5007303;28;20486;-66
2021/04/12 05:34:43;;;;;;;2.53;1.70;;;;;;;;;;5073057;28;20499;-64
2021/04/12 05:37:17;;;;;;;2.53;1.70;;;;;;;;;;5077757;28;20458;-64
2021/04/12 05:40:00;;;;;;;1.92;1.33;;;;;;;;;;5078180;28;20068;-65
2021/04/12 05:42:38;;;;;;;6.57;2.83;;;;;;;;;;5079289;28;20048;-65
2021/04/12 05:45:16;;;;;;;3.10;1.77;;;;;;;;;;5082975;28;20052;-65
2021/04/12 05:48:20;;;;;;;7.25;2.45;;;;;;;;;;5079874;28;20401;-63
2021/04/12 05:50:58;;;;;;;5.32;2.28;;;;;;;;;;5002597;28;20045;-66
2021/04/12 05:53:47;;;;;;;2.88;1.98;;;;;;;;;;5084310;28;20048;-66
2021/04/12 05:56:26;;;;;;;2.35;1.80;;;;;;;;;;5083748;28;20370;-66
2021/04/12 05:59:08;;;;;;;2.97;1.80;;;;;;;;;;5083278;28;20100;-66
2021/04/12 06:01:51;;;;;;;3.03;1.88;;;;;;;;;;5081587;28;22458;-67
2021/04/12 06:04:24;;;;;;;3.17;1.83;;;;;;;;;;5081015;28;20485;-66
2021/04/12 06:07:23;;;;;;;2.60;1.58;;;;;;;;;;5085170;28;20052;-66
2021/04/12 06:10:11;;;;;;;3.45;1.90;;;;;;;;;;5080551;28;20040;-64
2021/04/12 06:13:01;;;;;;;3.65;2.03;;;;;;;;;;5083250;28;20555;-64
2021/04/12 06:15:46;;;;;;;4.53;2.28;;;;;;;;;;5084082;28;20527;-64
2021/04/12 06:18:55;;;;;;;3.08;1.92;;;;;;;;;;5083607;28;20036;-64
2021/04/12 06:21:28;;;;;;;3.35;2.00;;;;;;;;;;5031331;28;20048;-65
2021/04/12 06:24:30;;;;;;;3.10;2.03;;;;;;;;;;5083624;28;20064;-64
2021/04/12 06:27:13;;;;;;;3.17;1.88;;;;;;;;;;5047755;28;20048;-64
2021/04/12 06:29:47;;;;;;;3.10;2.15;;;;;;;;;;5083081;28;20047;-65
2021/04/12 06:32:35;;;;;;;4.30;2.20;;;;;;;;;;5082097;28;20485;-64
2021/04/12 06:35:31;;;;;;;3.40;1.90;;;;;;;;;;5077132;28;20040;-64
2021/04/12 06:38:21;;;;;;;3.42;2.13;;;;;;;;;;5079855;28;20044;-64
2021/04/12 06:41:11;;;;;;;3.38;2.38;;;;;;;;;;5078343;28;20048;-67
2021/04/12 06:43:55;;;;;;;3.95;2.35;;;;;;;;;;5080211;28;20080;-64
2021/04/12 06:47:02;;;;;;;3.33;2.30;;;;;;;;;;5080835;28;20044;-67
2021/04/12 06:50:18;;;;;;;3.97;2.55;;;;;;;;;;5079526;28;20617;-69
2021/04/12 06:53:28;;;;;;;3.78;2.65;;;;;;;;;;5082943;28;20433;-65
2021/04/12 06:56:42;;;;;;;3.90;2.30;;;;;;;;;;5061010;28;20424;-68
2021/04/12 06:59:59;;;;;;;4.22;2.70;;;;;;;;;;5079170;28;20048;-66
2021/04/12 07:02:48;;;;;;;4.05;2.58;;;;;;;;;;5079141;28;20054;-65
2021/04/12 07:05:30;;;;;;;4.88;3.22;;;;;;;;;;5081379;28;20060;-66
2021/04/12 07:08:27;;;;;;;5.18;3.35;;;;;;;;;;5081948;28;20538;-65
2021/04/12 07:11:18;;;;;;;5.75;2.90;;;;;;;;;;5082363;28;20052;-66
2021/04/12 07:14:11;;;;;;;7.65;3.55;;;;;;;;;;5074758;28;20049;-65
2021/04/12 07:16:52;;;;;;;5.03;3.50;;;;;;;;;;5079187;28;20044;-68
2021/04/12 07:20:09;;;;;;;6.05;3.20;;;;;;;;;;5080430;28;20059;-66
2021/04/12 07:22:51;;;;;;;5.53;3.47;;;;;;;;;;5019480;28;20044;-67
2021/04/12 07:26:05;;;;;;;5.18;3.55;;;;;;;;;;5075031;28;20503;-65
2021/04/12 07:29:05;;;;;;;5.78;3.75;;;;;;;;;;5075296;28;20128;-65
2021/04/12 07:31:47;;;;;;;6.10;3.90;;;;;;;;;;5079469;28;20052;-67
2021/04/12 07:35:01;;;;;;;4.93;3.55;;;;;;;;;;5075365;28;20041;-65
2021/04/12 07:37:46;;;;;;;5.57;3.78;;;;;;;;;;5042906;28;20676;-65
2021/04/12 07:40:56;;;;;;;5.30;3.78;;;;;;;;;;5071135;28;20473;-65
2021/04/12 07:43:50;;;;;;;6.28;3.95;;;;;;;;;;5074137;28;20048;-65
2021/04/12 07:46:32;;;;;;;5.22;4.05;;;;;;;;;;5077129;28;20044;-66
2021/04/12 07:49:35;;;;;;;5.80;3.97;;;;;;;;;;5075365;28;20070;-66
2021/04/12 07:52:49;;;;;;;7.05;3.60;;;;;;;;;;5076585;28;20040;-67
2021/04/12 07:55:49;;;;;;;6.38;4.00;;;;;;;;;;5057896;28;20048;-68
2021/04/12 07:58:54;;;;;;;5.57;3.75;;;;;;;;;;5072059;28;20055;-66
2021/04/12 08:01:42;;;;;;;5.35;3.63;;;;;;;;;;5074724;28;20067;-65
2021/04/12 08:04:45;;;;;;;5.60;3.92;;;;;;;;;;5077368;28;20473;-68
2021/04/12 08:07:44;;;;;;;8.20;3.83;;;;;;;;;;5070972;28;20048;-65
2021/04/12 08:10:37;;;;;;;13.27;3.78;;;;;;;;;;5058720;28;20055;-66
2021/04/12 08:13:28;;;;;;;6.18;4.28;;;;;;;;;;5058914;28;20459;-64
2021/04/12 08:16:37;;;;;;;6.10;4.18;;;;;;;;;;5070414;28;20052;-65
2021/04/12 08:19:27;;;;;;;5.15;3.30;;;;;;;;;;5053585;28;20417;-65
2021/04/12 08:22:29;;;;;;;9.07;3.80;;;;;;;;;;5075398;28;20398;-66
2021/04/12 08:25:13;;;;;;;7.03;3.78;;;;;;;;;;5077135;28;20052;-66
2021/04/12 08:28:21;;;;;;;5.20;3.50;;;;;;;;;;5071801;28;20055;-68
2021/04/12 08:31:23;;;;;;;4.78;3.83;;;;;;;;;;5075540;28;20055;-65
2021/04/12 08:34:19;;;;;;;5.65;3.75;;;;;;;;;;5072963;28;20101;-66
2021/04/12 08:37:07;;;;;;;4.70;3.20;;;;;;;;;;5073624;28;20063;-64
2021/04/12 08:40:08;;;;;;;4.60;3.30;;;;;;;;;;5071535;28;20047;-66
2021/04/12 08:43:07;;;;;;;13.35;6.38;;;;;;;;;;5072230;28;20115;-66
2021/04/12 08:45:59;;;;;;;4.63;3.67;;;;;;;;;;5081309;28;20444;-66
2021/04/12 08:48:51;;;;;;;5.47;3.78;;;;;;;;;;5079970;28;20796;-67
2021/04/12 08:51:44;;;;;;;4.68;3.30;;;;;;;;;;5077905;28;20051;-64
2021/04/12 08:54:45;;;;;;;5.18;3.78;;;;;;;;;;5073530;28;20052;-64
2021/04/12 08:57:49;;;;;;;4.53;3.30;;;;;;;;;;5071729;28;20481;-64
2021/04/12 09:00:42;;;;;;;5.88;3.40;;;;;;;;;;5070761;28;20467;-63
2021/04/12 09:03:28;;;;;;;5.22;3.58;;;;;;;;;;5077561;28;20481;-63
2021/04/12 09:06:21;;;;;;;8.27;5.43;;;;;;;;;;5073079;28;20138;-66
2021/04/12 09:09:01;;;;;;;5.53;3.60;;;;;;;;;;5073046;28;20646;-63
2021/04/12 09:11:45;;;;;;;5.50;3.40;;;;;;;;;;5073424;28;20053;-66
2021/04/12 09:14:36;;;;;;;5.35;3.40;;;;;;;;;;5070455;28;20048;-65
2021/04/12 09:17:13;;;;;;;4.22;3.15;;;;;;;;;;5075176;28;20049;-64
2021/04/12 09:20:26;;;;;;;5.43;3.75;;;;;;;;;;5083368;28;20052;-66
2021/04/12 09:23:12;;;;;;;5.45;3.85;;;;;;;;;;5019944;28;20061;-64
2021/04/12 09:25:50;;;;;;;7.38;4.45;;;;;;;;;;5075787;28;20055;-63
2021/04/12 09:28:43;;;;;;;6.15;4.40;;;;;;;;;;5077178;28;20045;-64
2021/04/12 09:31:22;;;;;;;7.97;5.10;;;;;;;;;;5075777;28;20052;-64
2021/04/12 09:34:03;;;;;;;6.38;4.10;;;;;;;;;;5074169;28;20049;-64
2021/04/12 09:36:55;;;;;;;12.05;6.57;;;;;;;;;;5076159;28;20138;-65
2021/04/12 09:39:35;;;;;;;13.80;7.07;;;;;;;;;;5083660;28;20048;-65
2021/04/12 09:42:15;;;;;;;6.68;4.25;;;;;;;;;;5076449;28;20484;-65
2021/04/12 09:45:25;;;;;;;5.38;3.47;;;;;;;;;;5074584;28;20051;-63
2021/04/12 09:48:33;;;;;;;5.20;3.78;;;;;;;;;;5019579;28;20141;-65
2021/04/12 09:51:42;;;;;;;5.43;3.50;;;;;;;;;;5078813;28;20045;-64
2021/04/12 09:54:44;;;;;;;5.78;4.15;;;;;;;;;;5064028;28;20051;-65
2021/04/12 09:57:50;;;;;;;5.40;3.63;;;;;;;;;;5075918;28;20049;-65
2021/04/12 10:00:36;;;;;;;5.13;3.67;;;;;;;;;;5076336;28;20061;-64
2021/04/12 10:03:19;;;;;;;5.15;3.63;;;;;;;;;;5075299;28;20051;-64
2021/04/12 10:06:17;;;;;;;4.85;3.67;;;;;;;;;;5077949;28;20048;-63
2021/04/12 10:08:46;;;;;;;5.40;4.00;;;;;;;;;;5078127;28;20048;-64
2021/04/12 10:11:15;;;;;;;4.65;3.38;;;;;;;;;;5077879;28;20044;-64
2021/04/12 10:13:45;;;;;;;4.82;3.65;;;;;;;;;;5076492;28;20063;-64
2021/04/12 10:16:19;;;;;;;6.97;3.60;;;;;;;;;;5074748;28;20045;-64
2021/04/12 10:18:51;;;;;;;4.13;3.05;;;;;;;;;;5080250;28;20051;-63
2021/04/12 10:21:20;;;;;;;5.30;3.53;;;;;;;;;;5081501;28;20040;-64
2021/04/12 10:23:51;;;;;;;5.47;3.38;;;;;;;;;;5084035;28;20060;-64
2021/04/12 10:26:23;;;;;;;4.53;3.58;;;;;;;;;;5081197;28;20054;-66
2021/04/12 10:28:51;;;;;;;4.10;2.90;;;;;;;;;;5081589;28;20056;-66
2021/04/12 10:31:26;;;;;;;5.25;3.63;;;;;;;;;;5076381;28;20056;-66
2021/04/12 10:34:00;;;;;;;4.07;2.80;;;;;;;;;;5075779;28;20052;-66
2021/04/12 10:36:29;;;;;;;5.00;3.45;;;;;;;;;;5078520;28;20063;-65
2021/04/12 10:39:00;;;;;;;4.85;3.55;;;;;;;;;;5077240;28;20105;-64
2021/04/12 10:41:29;;;;;;;4.07;2.83;;;;;;;;;;5075119;28;20404;-66
2021/04/12 10:44:02;;;;;;;4.43;3.28;;;;;;;;;;5074368;28;20044;-67
2021/04/12 10:46:32;;;;;;;4.68;3.30;;;;;;;;;;5079140;28;20059;-66
2021/04/12 10:49:04;;;;;;;4.13;3.20;;;;;;;;;;5078924;28;20048;-66
2021/04/12 10:51:34;;;;;;;4.20;3.10;;;;;;;;;;5076172;28;20048;-65
2021/04/12 10:54:34;;;;;;;5.13;3.05;;;;;;;;;;5072474;28;20048;-66
2021/04/12 10:57:10;;;;;;;5.40;3.17;;;;;;;;;;5078178;28;20052;-67
2021/04/12 10:59:51;;;;;;;4.72;3.10;;;;;;;;;;5074597;28;20425;-67
2021/04/12 11:02:22;;;;;;;7.43;3.22;;;;;;;;;;5082380;28;20086;-65
2021/04/12 11:04:54;;;;;;;6.20;3.50;;;;;;;;;;5081931;28;20055;-65
2021/04/12 11:07:22;;;;;;;5.80;3.80;;;;;;;;;;5078927;28;20048;-67
2021/04/12 11:10:06;;;;;;;5.82;3.75;;;;;;;;;;5078573;28;20048;-66
2021/04/12 11:12:42;;;;;;;5.40;3.25;;;;;;;;;;5080002;28;20048;-65
2021/04/12 11:15:20;;;;;;;5.25;3.45;;;;;;;;;;5080294;28;20051;-64
2021/04/12 11:17:51;;;;;;;5.18;3.83;;;;;;;;;;5078606;28;20495;-67
2021/04/12 11:20:21;;;;;;;4.65;3.05;;;;;;;;;;5083519;28;20083;-65
2021/04/12 11:22:55;;;;;;;5.82;3.38;;;;;;;;;;5079081;28;20120;-66
2021/04/12 11:25:26;;;;;;;6.22;3.17;;;;;;;;;;5077121;28;20113;-65
2021/04/12 11:28:02;;;;;;;4.88;2.97;;;;;;;;;;5077367;28;20097;-66
2021/04/12 11:30:30;;;;;;;;;;;;;;;;;;5073741;28;20048;-65
2021/04/12 11:33:06;;;;;;;4.82;3.08;;;;;;;;;;5076985;28;19920;-65
2021/04/12 11:35:37;;;;;;;4.38;3.13;;;;;;;;;;5081387;28;20366;-64
2021/04/12 11:38:09;;;;;;;5.10;3.47;;;;;;;;;;5077528;28;20041;-69
2021/04/12 11:40:37;;;;;;;4.40;2.80;;;;;;;;;;5077787;28;20056;-67
2021/04/12 11:43:09;;;;;;;4.65;3.30;;;;;;;;;;5080455;28;20040;-65
2021/04/12 11:45:41;;;;;;;4.60;3.17;;;;;;;;;;5078259;28;20056;-67
2021/04/12 11:48:13;;;;;;;4.88;3.45;;;;;;;;;;5081456;28;20048;-65
2021/04/12 11:50:44;;;;;;;5.20;3.60;;;;;;;;;;5078027;28;20080;-65
2021/04/12 11:53:22;;;;;;;5.22;3.15;;;;;;;;;;5079733;28;20054;-68
2021/04/12 11:55:56;;;;;;;5.68;2.83;;;;;;;;;;5075625;28;20139;-67
2021/04/12 11:58:28;;;;;;;4.20;3.28;;;;;;;;;;5072893;28;20093;-65
2021/04/12 12:01:02;;;;;;;9.10;4.43;;;;;;;;;;5079678;28;20048;-68
2021/04/12 12:03:58;;;;;;;4.97;3.08;;;;;;;;;;5078020;28;20060;-67
2021/04/12 12:06:34;;;;;;;4.90;3.05;;;;;;;;;;5079099;28;20056;-65
2021/04/12 12:09:09;;;;;;;6.18;3.30;;;;;;;;;;5077270;28;20047;-66
2021/04/12 12:11:45;;;;;;;6.65;3.67;;;;;;;;;;5082682;28;20448;-66
2021/04/12 12:14:20;;;;;;;5.43;3.50;;;;;;;;;;5081592;28;20143;-67
2021/04/12 12:16:46;;;;;;;4.10;3.05;;;;;;;;;;5077778;28;20056;-65
2021/04/12 12:19:22;;;;;;;4.47;3.00;;;;;;;;;;5083037;28;20354;-65
2021/04/12 12:21:52;;;;;;;4.88;3.25;;;;;;;;;;5079311;28;20056;-65
2021/04/12 12:24:23;;;;;;;4.70;3.22;;;;;;;;;;5079299;28;20048;-66
2021/04/12 12:26:56;;;;;;;5.47;3.95;;;;;;;;;;5080351;28;20051;-65
2021/04/12 12:29:26;;;;;;;6.80;3.58;;;;;;;;;;5078458;28;20059;-65
2021/04/12 12:32:15;;;;;;;5.50;3.85;;;;;;;;;;5079584;28;20067;-66
2021/04/12 12:35:01;;;;;;;8.55;4.10;;;;;;;;;;5077313;28;20040;-66
2021/04/12 12:37:43;;;;;;;6.30;4.10;;;;;;;;;;5065968;28;20048;-67
2021/04/12 12:40:12;;;;;;;6.57;4.80;;;;;;;;;;5079674;28;20529;-65
2021/04/12 12:42:40;;;;;;;5.90;4.13;;;;;;;;;;5078765;28;20424;-65
2021/04/12 12:45:11;;;;;;;6.35;4.45;;;;;;;;;;5081776;28;20044;-66
2021/04/12 12:47:38;;;;;;;6.72;4.80;;;;;;;;;;5083432;28;20044;-65
2021/04/12 12:50:11;;;;;;;6.88;4.20;;;;;;;;;;5083571;28;20056;-65
2021/04/12 12:52:39;;;;;;;7.18;4.35;;;;;;;;;;5079690;28;20101;-65
2021/04/12 12:55:11;;;;;;;7.03;4.63;;;;;;;;;;5078871;28;20178;-65
2021/04/12 12:57:39;;;;;;;8.48;4.80;;;;;;;;;;5077400;28;20048;-65
2021/04/12 13:00:17;;;;;;;5.50;4.35;;;;;;;;;;5080718;28;20534;-65
2021/04/12 13:02:44;;;;;;;7.88;4.82;;;;;;;;;;5074028;28;20127;-64
2021/04/12 13:05:17;;;;;;;5.80;4.55;;;;;;;;;;5074109;28;20054;-65
2021/04/12 13:07:44;;;;;;;6.13;4.50;;;;;;;;;;5078252;28;20069;-66
2021/04/12 13:10:16;;;;;;;7.70;4.68;;;;;;;;;;5082816;28;20044;-65
2021/04/12 13:12:44;;;;;;;7.68;5.00;;;;;;;;;;5077814;28;20089;-65
2021/04/12 13:15:19;;;;;;;10.07;5.28;;;;;;;;;;5079538;28;20132;-65
2021/04/12 13:17:45;;;;;;;6.93;5.03;;;;;;;;;;5077684;28;20056;-65
2021/04/12 13:20:16;;;;;;;8.52;5.47;;;;;;;;;;5080174;28;20044;-65
2021/04/12 13:22:43;;;;;;;6.53;5.10;;;;;;;;;;5079299;28;20044;-65
2021/04/12 13:25:18;;;;;;;7.13;4.97;;;;;;;;;;5076202;28;20052;-65
2021/04/12 13:27:45;;;;;;;5.70;4.35;;;;;;;;;;5073950;28;20461;-65
2021/04/12 13:30:12;;;;;;;9.23;6.05;;;;;;;;;;5077637;28;20444;-65
2021/04/12 13:32:47;;;;;;;8.40;6.13;;;;;;;;;;5082848;28;20040;-65
2021/04/12 13:35:16;;;;;;;7.80;6.20;;;;;;;;;;5080205;28;20048;-65
2021/04/12 13:37:56;;;;;;;9.95;7.07;;;;;;;;;;5077773;28;20055;-65
2021/04/12 13:40:24;;;;;;;10.43;7.60;;;;;;;;;;5078887;28;20153;-65
2021/04/12 13:42:52;;;;;;;11.07;7.60;;;;;;;;;;5080701;28;20051;-65
2021/04/12 13:45:27;;;;;;;9.88;8.07;;;;;;;;;;5079102;28;20048;-65
2021/04/12 13:47:56;;;;;;;11.20;8.20;;;;;;;;;;5079512;28;20036;-65
2021/04/12 13:50:25;;;;;;;15.68;8.25;;;;;;;;;;5078643;28;20048;-65
2021/04/12 13:52:56;;;;;;;13.20;8.82;;;;;;;;;;5078898;28;20480;-65
2021/04/12 13:55:26;;;;;;;11.25;7.82;;;;;;;;;;5077404;28;20377;-65
2021/04/12 13:57:54;;;;;;;10.45;7.40;;;;;;;;;;5078353;28;20048;-65
2021/04/12 14:00:24;;;;;;;9.40;7.43;;;;;;;;;;5075549;28;20052;-65
2021/04/12 14:02:56;;;;;;;8.45;6.35;;;;;;;;;;5081387;28;20358;-64
2021/04/12 14:05:26;;;;;;;8.20;5.95;;;;;;;;;;5079588;28;20392;-65
2021/04/12 14:07:56;;;;;;;8.57;6.55;;;;;;;;;;5081629;28;20453;-65
2021/04/12 14:10:24;;;;;;;7.28;6.07;;;;;;;;;;5080863;28;20589;-65
2021/04/12 14:12:55;;;;;;;9.90;6.28;;;;;;;;;;5083543;28;20068;-64
2021/04/12 14:15:31;;;;;;;8.73;6.78;;;;;;;;;;5081027;28;20063;-65
2021/04/12 14:18:02;;;;;;;9.23;6.00;;;;;;;;;;5083002;28;20085;-64
2021/04/12 14:20:34;;;;;;;8.98;6.93;;;;;;;;;;5079775;28;20052;-65
2021/04/12 14:23:03;;;;;;;9.27;7.72;;;;;;;;;;5080894;28;20048;-64
2021/04/12 14:25:31;;;;;;;10.07;7.45;;;;;;;;;;5083141;28;20481;-65
2021/04/12 14:28:05;;;;;;;10.43;8.18;;;;;;;;;;5082937;28;20097;-64
2021/04/12 14:30:32;;;;;;;11.43;8.10;;;;;;;;;;5083133;28;20466;-64
2021/04/12 14:33:01;;;;;;;13.35;9.50;;;;;;;;;;5085282;28;20048;-64
2021/04/12 14:35:29;;;;;;;12.75;9.20;;;;;;;;;;5085360;28;20434;-64
2021/04/12 14:38:04;;;;;;;12.27;9.32;;;;;;;;;;5083070;28;20113;-64
2021/04/12 14:40:31;;;;;;;14.43;11.00;;;;;;;;;;5078943;28;20102;-65
2021/04/12 14:43:00;;;;;;;12.77;9.52;;;;;;;;;;5078986;28;20508;-64
2021/04/12 14:45:30;;;;;;;11.07;8.30;;;;;;;;;;5079977;28;20072;-65
2021/04/12 14:48:01;;;;;;;14.43;9.05;;;;;;;;;;5078291;28;20104;-64
2021/04/12 14:50:28;;;;;;;12.75;9.40;;;;;;;;;;5078280;28;20430;-64
2021/04/12 14:52:59;;;;;;;13.68;9.52;;;;;;;;;;5080066;28;20565;-64
2021/04/12 14:55:28;;;;;;;12.73;9.13;;;;;;;;;;5079707;28;20538;-64
2021/04/12 14:58:07;;;;;;;13.38;9.13;;;;;;;;;;5082051;28;20056;-64
2021/04/12 15:00:35;;;;;;;11.32;8.30;;;;;;;;;;5081244;28;20093;-64
2021/04/12 15:03:04;;;;;;;11.60;7.95;;;;;;;;;;5080553;28;20036;-64
2021/04/12 15:05:38;;;;;;;12.10;9.00;;;;;;;;;;5077882;28;20049;-65
2021/04/12 15:08:12;;;;;;;11.45;8.77;;;;;;;;;;5078423;28;20062;-64
2021/04/12 15:10:41;;;;;;;13.25;8.98;;;;;;;;;;5078122;28;20481;-64
2021/04/12 15:13:10;;;;;;;12.20;9.18;;;;;;;;;;5077285;28;20049;-65
2021/04/12 15:15:38;;;;;;;12.77;8.90;;;;;;;;;;5074823;28;20052;-65
2021/04/12 15:18:16;;;;;;;12.68;9.20;;;;;;;;;;5070842;28;20049;-65
2021/04/12 15:20:46;;;;;;;12.30;9.25;;;;;;;;;;5069682;28;20101;-65
2021/04/12 15:23:20;;;;;;;11.20;8.70;;;;;;;;;;5082066;28;20048;-65
2021/04/12 15:25:56;;;;;;;12.18;8.27;;;;;;;;;;5078146;28;20059;-65
2021/04/12 15:28:25;;;;;;;;;;;;;;;;;;5079565;28;20048;-65
2021/04/12 15:30:57;;;;;;;11.38;8.98;;;;;;;;;;5082690;28;20414;-65
2021/04/12 15:33:25;;;;;;;13.07;9.60;;;;;;;;;;5081383;28;20059;-66
2021/04/12 15:35:57;;;;;;;20.30;11.43;;;;;;;;;;5082571;28;20122;-65
2021/04/12 15:38:26;;;;;;;15.45;9.38;;;;;;;;;;5079606;28;20401;-65
2021/04/12 15:40:55;;;;;;;14.07;10.65;;;;;;;;;;5082335;28;20047;-65
2021/04/12 15:43:23;;;;;;;11.55;8.88;;;;;;;;;;5080614;28;20197;-65
2021/04/12 15:45:58;;;;;;;15.30;11.18;;;;;;;;;;5082920;28;20055;-66
2021/04/12 15:48:26;;;;;;;16.60;11.23;;;;;;;;;;5080141;28;20435;-67
2021/04/12 15:51:11;;;;;;;14.02;9.73;;;;;;;;;;5082182;28;20040;-65
2021/04/12 15:53:38;;;;;;;12.10;8.63;;;;;;;;;;5082212;28;20048;-65
2021/04/12 15:56:08;;;;;;;13.60;9.73;;;;;;;;;;5080862;28;20740;-65
2021/04/12 15:58:36;;;;;;;13.50;9.40;;;;;;;;;;5079952;28;20517;-65
2021/04/12 16:01:08;;;;;;;12.00;9.10;;;;;;;;;;5077598;28;20051;-65